Nearby METAR Reports

 

KBVO - Bartlesville, Oklahoma, USA
Distance from station: WNW 10mi, 16km
Updated: Fri, 24-May-2019 10:53pm CDT
Nearby thunderstorm, Light rain, Overcast
Nearby thunderstorm, Light rain, Overcast
 Wind from SW
Wind: SW 14 mph , 22 km/h, Gust: 20 mph , 31 km/h
Temperature: 66°F , 19°C
Dew Point: 64°F , 18°C
Humidity: 94%
Barometer: 30.01 inHg , 1016.3 hPa
Summary: Nearby thunderstorm, Light rain
Clouds: Overcast
Visibility: 9 miles , 14 km
Cloud details: Overcast 10000 ft
2019/05/25 03:53 KBVO 250353Z AUTO 22012G17KT 9SM VCTS -RA OVC100 19/18 A3001 RMK AO2 LTG DSNT SW AND W TSB14E29 SLP154 P0006 T01890178
KCFV - Coffeyville, Kansas, USA
Distance from station: NNE 31mi, 49km
Updated: Fri, 24-May-2019 10:52pm CDT
Light rain, Overcast
Light rain, Overcast
 Wind from S
Wind: S 12 mph , 19 km/h
Temperature: 66°F , 19°C
Dew Point: 64°F , 18°C
Humidity: 94%
Barometer: 30.00 inHg , 1015.9 hPa
Summary: Light rain
Clouds: Overcast
Visibility: 10 miles , 16 km
Cloud details: Overcast 11000 ft
2019/05/25 03:52 KCFV 250352Z AUTO 17010KT 10SM -RA OVC110 19/18 A3000 RMK AO2 LTG DSNT E TSE02 SLP155 P0008 T01890178
 
KIDP - Independence, Kansas, USA
Distance from station: N 32mi, 52km
Updated: Fri, 24-May-2019 11:15pm CDT
Light rain, Overcast
Light rain, Overcast
 Wind from S
Wind: S 13 mph , 20 km/h
Temperature: 66°F , 19°C
Dew Point: 64°F , 18°C
Humidity: 94%
Barometer: 29.99 inHg , 1015.6 hPa
Summary: Light rain
Clouds: Overcast
Visibility: 10 miles , 16 km
Cloud details: Partly cloudy 9000 ft
Overcast 12000 ft
2019/05/25 04:15 KIDP 250415Z AUTO 17011KT 10SM -RA SCT090 OVC120 19/18 A2999 RMK AO2 LTG DSNT S AND SW T01910183
KGCM - Claremore, Oklahoma, USA
Distance from station: SE 35mi, 56km
Updated: Fri, 24-May-2019 11:15pm CDT
Light rain, Overcast
Light rain, Overcast
 Wind from NNW
Wind: NNW 7 mph , 11 km/h
Temperature: 70°F , 21°C
Dew Point: 63°F , 17°C
Humidity: 78%
Barometer: 30.04 inHg , 1017.3 hPa
Summary: Light rain
Clouds: Overcast
Visibility: 10 miles , 16 km
Cloud details: Mostly cloudy 3500 ft
Overcast 4000 ft
2019/05/25 04:15 KGCM 250415Z AUTO 33006KT 10SM -RA BKN035 OVC040 21/17 A3004 RMK AO2 P0001
 
KTUL - Tulsa, Oklahoma, USA
Distance from station: S 35mi, 56km
Updated: Fri, 24-May-2019 10:53pm CDT
Light rain, Overcast
Light rain, Overcast
 Wind from WNW
Wind: WNW 12 mph , 19 km/h
Temperature: 70°F , 21°C
Dew Point: 64°F , 18°C
Humidity: 83%
Barometer: 30.00 inHg , 1015.9 hPa
Summary: Light rain
Clouds: Overcast
Visibility: 10 miles , 16 km
Cloud details: Mostly cloudy 4300 ft
Overcast 5000 ft
2019/05/25 03:53 KTUL 250353Z 30010KT 10SM -RA BKN043 OVC050 21/18 A3000 RMK AO2 PK WND 31026/0309 RAB46 SLP153 P0000 T02060183
KRVS - Tulsa, Oklahoma, USA
Distance from station: S 46mi, 74km
Updated: Fri, 24-May-2019 10:53pm CDT
Light rain, Overcast
Light rain, Overcast
 Wind from varies
Wind: varies 3 mph , 6 km/h
Temperature: 72°F , 22°C
Dew Point: 63°F , 17°C
Humidity: 73%
Barometer: 30.01 inHg , 1016.3 hPa
Summary: Light rain
Clouds: Overcast
Visibility: 10 miles , 16 km
Cloud details: Mostly cloudy 3900 ft
Overcast 4800 ft
2019/05/25 03:53 KRVS 250353Z VRB03KT 10SM -RA BKN039 OVC048 22/17 A3001 RMK AO2 RAB45 SLP165 P0000 T02220172
 
KPPF - Parsons, Kansas, USA
Distance from station: NNE 48mi, 76km
Updated: Fri, 24-May-2019 10:52pm CDT
Light rain, Overcast
Light rain, Overcast
 Wind from SSE
Wind: SSE 6 mph , 9 km/h
Temperature: 66°F , 19°C
Dew Point: 64°F , 18°C
Humidity: 94%
Barometer: 30.01 inHg , 1016.3 hPa
Summary: Light rain
Clouds: Overcast
Visibility: 10 miles , 16 km
Cloud details: Overcast 11000 ft
2019/05/25 03:52 KPPF 250352Z AUTO 15005KT 10SM -RA OVC110 19/18 A3001 RMK AO2 LTG DSNT E TSE08 SLP157 P0003 T01890183
KGMJ - Grove, Oklahoma, USA
Distance from station: E 63mi, 101km
Updated: Fri, 24-May-2019 11:15pm CDT
Mostly cloudy
Mostly cloudy
 Wind from calm
Wind: Calm
Temperature: 73°F , 23°C
Dew Point: 64°F , 18°C
Humidity: 74%
Barometer: 30.03 inHg , 1016.9 hPa
Clouds: Mostly cloudy
Visibility: 10 miles , 16 km
Cloud details: Mostly cloudy 6000 ft
Mostly cloudy 8000 ft
Mostly cloudy 10000 ft
2019/05/25 04:15 KGMJ 250415Z AUTO 00000KT 10SM BKN060 BKN080 BKN100 23/18 A3003 RMK AO2
 
KPNC - Ponca City, Oklahoma, USA
Distance from station: W 69mi, 111km
Updated: Fri, 24-May-2019 10:53pm CDT
Light thunderstorm, Rain, Overcast
Light thunderstorm, Rain, Overcast
 
Temperature: 68°F , 20°C
Dew Point: 63°F , 17°C
Humidity: 83%
Barometer: 29.97 inHg , 1014.9 hPa
Summary: Light thunderstorm, Rain
Clouds: Overcast
Visibility: 10 miles , 16 km
Cloud details: Partly cloudy 9000 ft
Overcast 11000 ft
2019/05/25 03:53 KPNC 250353Z AUTO 10SM -TSRA SCT090 OVC110 20/17 A2997 RMK AO2 LTG DSNT ALQDS TSB43 SLP139 P0002 T02000167 $
KCNU - Chanute, Kansas, USA
Distance from station: NNE 69mi, 112km
Updated: Fri, 24-May-2019 10:52pm CDT
Light rain, Mostly cloudy
Light rain, Mostly cloudy
 Wind from SE
Wind: SE 8 mph , 13 km/h
Temperature: 66°F , 19°C
Dew Point: 64°F , 18°C
Humidity: 94%
Barometer: 29.98 inHg , 1015.2 hPa
Summary: Light rain
Clouds: Mostly cloudy
Visibility: 10 miles , 16 km
Cloud details: Mostly cloudy 10000 ft
2019/05/25 03:52 KCNU 250352Z AUTO 13007KT 10SM -RA BKN100 19/18 A2998 RMK AO2 LTG DSNT E TSE04 SLP145 P0008 T01940178